East Lancaster, Pennsylvania
Current Conditions -  °F | °C
As of 12:53 PM on Thursday 18 Dec 2014 (Local Time) from KLNS Reporting Station
Overcast Overcast  
Wind Chill: 27°   Ceiling: 3800
Heat Index: 36°   Visibility: 10mi
Dew Point: 24°   Wind: 15mph
Humidity: 62%   Direction: 280°W
Pressure: 30.06"   Gusts: NA
Location:  40.0388°N, 76.3074°W
Report Text: KLNS 181753Z 28013KT 10SM OVC038 02/M04 A3006 RMK AO2 SLP183 T00221044 10028 20006 58016
Loading
Personal Weather Stations






























Interactive Weather Map New forecast layout! Learn more

10-Day Weather Forecast

Advertisements
Track Severe Weather on mobile